Time;durP1;ratioP1;P1;durP2;ratioP2;P2;SDS_P1;SDS_P2;PMS_P1;PMS_P2;Temp;Humidity;BMP_temperature;BMP_pressure;BME280_temperature;BME280_humidity;BME280_pressure;Samples;Min_cycle;Max_cycle;Signal;HPM_P1;HPM_P2
2023/06/28 00:03:10;;;;;;;3.40;3.00;;;;;;;;;;10302433;28;20148;-71
2023/06/28 00:08:10;;;;;;;3.47;2.85;;;;;;;;;;10296307;28;20125;-72
2023/06/28 00:13:10;;;;;;;4.55;3.28;;;;;;;;;;10298785;28;20093;-72
2023/06/28 00:18:11;;;;;;;3.97;3.08;;;;;;;;;;10289569;28;20058;-73
2023/06/28 00:23:13;;;;;;;4.65;3.10;;;;;;;;;;10299147;28;20522;-72
2023/06/28 00:28:14;;;;;;;4.50;3.88;;;;;;;;;;10301015;28;20047;-72
2023/06/28 00:33:19;;;;;;;4.60;3.28;;;;;;;;;;10274108;28;20070;-71
2023/06/28 00:38:20;;;;;;;5.90;3.78;;;;;;;;;;10300961;28;20054;-72
2023/06/28 00:43:20;;;;;;;4.10;3.43;;;;;;;;;;10298828;28;20042;-73
2023/06/28 00:48:24;;;;;;;3.90;3.50;;;;;;;;;;10292245;28;20372;-73
2023/06/28 00:53:25;;;;;;;4.50;3.65;;;;;;;;;;10294833;28;20752;-72
2023/06/28 00:58:28;;;;;;;3.38;3.08;;;;;;;;;;10299649;28;20082;-72
2023/06/28 01:03:28;;;;;;;4.10;3.80;;;;;;;;;;10299695;28;20143;-71
2023/06/28 01:08:30;;;;;;;4.47;3.25;;;;;;;;;;10300536;28;20121;-72
2023/06/28 01:13:31;;;;;;;4.30;3.75;;;;;;;;;;10307165;28;20050;-72
2023/06/28 01:18:34;;;;;;;3.65;3.33;;;;;;;;;;10297069;28;20081;-72
2023/06/28 01:23:35;;;;;;;4.50;3.30;;;;;;;;;;10300906;28;20146;-73
2023/06/28 01:28:36;;;;;;;3.63;3.22;;;;;;;;;;10298631;28;20502;-71
2023/06/28 01:33:36;;;;;;;4.50;3.58;;;;;;;;;;10300687;28;20057;-73
2023/06/28 01:38:39;;;;;;;4.23;3.20;;;;;;;;;;10300098;28;20140;-72
2023/06/28 01:43:40;;;;;;;3.80;3.00;;;;;;;;;;10303974;28;20293;-73
2023/06/28 01:48:40;;;;;;;4.70;3.70;;;;;;;;;;10306418;28;20054;-72
2023/06/28 01:53:40;;;;;;;4.10;3.80;;;;;;;;;;10302102;28;20814;-72
2023/06/28 01:58:41;;;;;;;3.65;3.30;;;;;;;;;;10298003;28;20096;-72
2023/06/28 02:03:41;;;;;;;4.43;4.03;;;;;;;;;;10299505;28;20113;-72
2023/06/28 02:08:41;;;;;;;6.00;3.53;;;;;;;;;;10302268;28;20347;-72
2023/06/28 02:13:42;;;;;;;3.83;3.50;;;;;;;;;;10306461;28;20058;-72
2023/06/28 02:18:45;;;;;;;4.57;4.17;;;;;;;;;;10303690;28;20066;-72
2023/06/28 02:23:45;;;;;;;4.75;4.25;;;;;;;;;;10310202;28;20537;-72
2023/06/28 02:28:46;;;;;;;5.25;4.60;;;;;;;;;;10302411;28;20053;-71
2023/06/28 02:33:48;;;;;;;4.88;3.97;;;;;;;;;;10295506;28;20072;-71
2023/06/28 02:38:49;;;;;;;3.97;3.67;;;;;;;;;;10299270;28;20062;-71
2023/06/28 02:43:49;;;;;;;5.32;4.82;;;;;;;;;;10304740;28;21011;-71
2023/06/28 02:48:50;;;;;;;5.10;4.55;;;;;;;;;;10302278;28;20055;-71
2023/06/28 02:53:50;;;;;;;5.18;4.05;;;;;;;;;;10289258;28;20108;-72
2023/06/28 02:58:51;;;;;;;5.40;4.90;;;;;;;;;;10296520;28;20448;-72
2023/06/28 03:03:51;;;;;;;4.80;4.22;;;;;;;;;;10298965;28;20911;-72
2023/06/28 03:08:52;;;;;;;4.90;4.50;;;;;;;;;;10300650;28;20465;-72
2023/06/28 03:13:53;;;;;;;5.35;4.88;;;;;;;;;;10283764;28;20042;-72
2023/06/28 03:18:54;;;;;;;5.70;5.10;;;;;;;;;;10297989;28;20141;-72
2023/06/28 03:23:55;;;;;;;5.60;5.00;;;;;;;;;;10302457;28;20073;-72
2023/06/28 03:28:57;;;;;;;5.05;4.55;;;;;;;;;;10302462;28;20046;-71
2023/06/28 03:33:58;;;;;;;5.78;5.18;;;;;;;;;;10299554;28;20217;-70
2023/06/28 03:38:58;;;;;;;5.47;4.97;;;;;;;;;;10304259;28;20058;-71
2023/06/28 03:44:02;;;;;;;6.07;5.20;;;;;;;;;;10298701;28;20061;-71
2023/06/28 03:49:04;;;;;;;6.43;4.90;;;;;;;;;;10303427;28;20050;-73
2023/06/28 03:54:06;;;;;;;5.78;5.15;;;;;;;;;;10302384;28;20039;-72
2023/06/28 03:59:06;;;;;;;5.20;4.65;;;;;;;;;;10299887;28;20050;-73
2023/06/28 04:04:07;;;;;;;5.67;5.17;;;;;;;;;;10298678;28;20188;-71
2023/06/28 04:09:08;;;;;;;4.90;4.40;;;;;;;;;;10303250;28;20046;-73
2023/06/28 04:14:08;;;;;;;5.97;4.55;;;;;;;;;;10298906;28;20043;-72
2023/06/28 04:19:09;;;;;;;5.10;4.70;;;;;;;;;;10262976;28;20058;-71
2023/06/28 04:24:12;;;;;;;6.67;4.37;;;;;;;;;;10291939;28;20058;-72
2023/06/28 04:29:13;;;;;;;5.00;4.60;;;;;;;;;;10302500;28;20045;-72
2023/06/28 04:34:16;;;;;;;7.40;5.35;;;;;;;;;;10305763;28;20100;-72
2023/06/28 04:39:18;;;;;;;4.45;4.05;;;;;;;;;;10303551;28;20047;-72
2023/06/28 04:44:18;;;;;;;5.72;4.75;;;;;;;;;;10297627;28;20053;-73
2023/06/28 04:49:18;;;;;;;6.20;4.73;;;;;;;;;;10295541;28;20149;-72
2023/06/28 04:54:19;;;;;;;5.20;4.70;;;;;;;;;;10297284;28;20297;-71
2023/06/28 04:59:19;;;;;;;6.00;4.43;;;;;;;;;;10310692;28;20046;-72
2023/06/28 05:04:19;;;;;;;5.10;4.60;;;;;;;;;;10303377;28;20054;-72
2023/06/28 05:09:20;;;;;;;5.10;4.70;;;;;;;;;;10302700;28;20046;-72
2023/06/28 05:14:20;;;;;;;5.43;4.93;;;;;;;;;;10303777;28;20405;-73
2023/06/28 05:19:21;;;;;;;4.97;4.47;;;;;;;;;;10312920;28;20444;-75
2023/06/28 05:24:22;;;;;;;5.03;4.53;;;;;;;;;;10312930;28;20293;-76
2023/06/28 05:29:22;;;;;;;6.93;5.13;;;;;;;;;;10309815;28;20149;-74
2023/06/28 05:34:22;;;;;;;5.40;4.90;;;;;;;;;;10315531;28;20292;-77
2023/06/28 05:39:23;;;;;;;5.65;5.15;;;;;;;;;;10309615;28;20308;-77
2023/06/28 05:44:23;;;;;;;4.90;4.50;;;;;;;;;;10306606;28;20042;-78
2023/06/28 05:49:23;;;;;;;4.87;4.40;;;;;;;;;;10315891;28;20285;-76
2023/06/28 05:54:24;;;;;;;5.43;4.83;;;;;;;;;;10314607;28;20293;-77
2023/06/28 05:59:24;;;;;;;6.20;4.90;;;;;;;;;;10312270;28;20038;-75
2023/06/28 06:04:24;;;;;;;5.70;5.20;;;;;;;;;;10311138;28;20325;-75
2023/06/28 06:09:26;;;;;;;5.72;5.10;;;;;;;;;;10323558;28;20290;-76
2023/06/28 06:14:26;;;;;;;4.80;4.40;;;;;;;;;;10330804;28;20030;-74
2023/06/28 06:19:26;;;;;;;5.60;4.90;;;;;;;;;;10329946;28;20054;-76
2023/06/28 06:24:27;;;;;;;6.00;3.90;;;;;;;;;;10305181;28;20055;-76
2023/06/28 06:29:27;;;;;;;5.03;4.53;;;;;;;;;;10314203;28;20046;-79
2023/06/28 06:34:27;;;;;;;6.07;5.47;;;;;;;;;;10313070;28;20281;-78
2023/06/28 06:39:28;;;;;;;6.40;4.90;;;;;;;;;;10315136;28;20081;-80
2023/06/28 06:44:28;;;;;;;5.17;4.40;;;;;;;;;;10316700;28;20046;-80
2023/06/28 06:49:28;;;;;;;4.97;4.30;;;;;;;;;;10313547;28;20050;-78
2023/06/28 06:54:29;;;;;;;6.68;4.60;;;;;;;;;;10317204;28;20063;-77
2023/06/28 06:59:30;;;;;;;4.85;4.22;;;;;;;;;;10315250;28;20395;-77
2023/06/28 07:04:31;;;;;;;4.95;4.45;;;;;;;;;;10315414;28;20043;-78
2023/06/28 07:09:31;;;;;;;4.40;4.00;;;;;;;;;;10296544;28;20058;-76
2023/06/28 07:14:31;;;;;;;4.63;3.83;;;;;;;;;;10319673;28;20518;-78
2023/06/28 07:19:32;;;;;;;4.65;3.20;;;;;;;;;;10311837;28;20057;-78
2023/06/28 07:24:32;;;;;;;4.53;3.55;;;;;;;;;;10319707;28;20048;-79
2023/06/28 07:29:33;;;;;;;3.85;3.45;;;;;;;;;;10316052;28;20073;-78
2023/06/28 07:34:33;;;;;;;3.45;3.15;;;;;;;;;;10312709;28;20050;-78
2023/06/28 07:39:33;;;;;;;5.80;3.17;;;;;;;;;;10312121;28;20165;-79
2023/06/28 07:44:34;;;;;;;5.37;3.20;;;;;;;;;;10308602;28;20281;-79
2023/06/28 07:49:34;;;;;;;3.07;2.60;;;;;;;;;;10308733;28;20141;-79
2023/06/28 07:54:35;;;;;;;4.07;3.10;;;;;;;;;;10315395;28;22440;-77
2023/06/28 07:59:35;;;;;;;4.15;3.05;;;;;;;;;;10299333;28;20290;-79
2023/06/28 08:04:35;;;;;;;4.93;2.93;;;;;;;;;;10315350;28;20042;-79
2023/06/28 08:09:36;;;;;;;4.82;2.78;;;;;;;;;;10318941;28;20043;-78
2023/06/28 08:14:37;;;;;;;3.50;3.20;;;;;;;;;;10314091;28;20054;-81
2023/06/28 08:19:37;;;;;;;3.05;2.40;;;;;;;;;;10304464;28;20062;-80
2023/06/28 08:24:38;;;;;;;3.20;2.43;;;;;;;;;;10311689;28;20391;-80
2023/06/28 08:29:38;;;;;;;3.75;2.60;;;;;;;;;;10306502;28;20368;-78
2023/06/28 08:34:39;;;;;;;3.57;2.33;;;;;;;;;;10307468;28;20664;-77
2023/06/28 08:39:39;;;;;;;3.58;2.20;;;;;;;;;;10304509;28;20086;-78
2023/06/28 08:44:40;;;;;;;4.43;2.35;;;;;;;;;;10305183;28;20085;-77
2023/06/28 08:49:41;;;;;;;4.15;2.40;;;;;;;;;;10312938;28;20541;-79
2023/06/28 08:54:42;;;;;;;3.17;2.17;;;;;;;;;;10300531;28;20582;-77
2023/06/28 08:59:42;;;;;;;3.08;2.40;;;;;;;;;;10311060;28;20055;-78
2023/06/28 09:04:42;;;;;;;7.90;6.63;;;;;;;;;;10303117;28;20050;-76
2023/06/28 09:09:46;;;;;;;2.88;2.10;;;;;;;;;;10314930;28;20070;-79
2023/06/28 09:14:47;;;;;;;4.60;2.50;;;;;;;;;;10313454;28;20112;-80
2023/06/28 09:19:47;;;;;;;3.30;2.23;;;;;;;;;;10310428;28;20047;-81
2023/06/28 09:24:48;;;;;;;3.47;2.10;;;;;;;;;;10335374;28;20102;-78
2023/06/28 09:29:57;;;;;;;3.88;2.10;;;;;;;;;;10359702;28;20045;-75
2023/06/28 09:34:58;;;;;;;2.58;2.25;;;;;;;;;;10351955;28;20041;-80
2023/06/28 09:39:58;;;;;;;4.83;2.50;;;;;;;;;;10310579;28;20042;-80
2023/06/28 09:44:58;;;;;;;3.27;2.07;;;;;;;;;;10334818;28;20277;-80
2023/06/28 09:50:01;;;;;;;2.42;1.95;;;;;;;;;;10325551;28;20045;-81
2023/06/28 09:55:02;;;;;;;3.45;2.40;;;;;;;;;;10322041;28;20046;-79
2023/06/28 10:00:05;;;;;;;2.05;1.60;;;;;;;;;;10330949;28;20055;-79
2023/06/28 10:05:12;;;;;;;2.78;1.85;;;;;;;;;;10322179;28;20113;-76
2023/06/28 10:10:13;;;;;;;2.75;1.55;;;;;;;;;;10314125;28;20887;-75
2023/06/28 10:15:15;;;;;;;3.42;1.73;;;;;;;;;;10317351;28;20398;-75
2023/06/28 10:20:16;;;;;;;3.25;1.90;;;;;;;;;;10306268;28;20058;-75
2023/06/28 10:25:17;;;;;;;2.35;1.80;;;;;;;;;;10307558;28;20054;-72
2023/06/28 10:30:17;;;;;;;3.45;2.00;;;;;;;;;;10297317;28;20046;-73
2023/06/28 10:35:18;;;;;;;2.65;1.70;;;;;;;;;;10310612;28;20042;-74
2023/06/28 10:40:18;;;;;;;3.08;1.65;;;;;;;;;;10316622;28;20483;-79
2023/06/28 10:45:32;;;;;;;2.25;1.70;;;;;;;;;;10314334;28;20042;-80
2023/06/28 10:50:42;;;;;;;7.10;2.45;;;;;;;;;;10311288;28;20909;-77
2023/06/28 10:56:02;;;;;;;2.28;1.65;;;;;;;;;;10312474;28;20514;-78
2023/06/28 11:01:04;;;;;;;2.60;1.65;;;;;;;;;;10313349;28;20054;-78
2023/06/28 11:06:05;;;;;;;;;;;;;;;;;;10312347;28;20304;-79
2023/06/28 11:11:06;;;;;;;2.80;2.00;;;;;;;;;;10316275;28;19928;-78
2023/06/28 11:16:09;;;;;;;4.85;2.20;;;;;;;;;;10307078;28;20055;-78
2023/06/28 11:21:17;;;;;;;2.78;2.30;;;;;;;;;;10292892;28;20072;-77
2023/06/28 11:26:31;;;;;;;2.50;2.00;;;;;;;;;;10312850;28;20722;-77
2023/06/28 11:31:34;;;;;;;4.97;1.85;;;;;;;;;;10309715;28;20050;-78
2023/06/28 11:36:35;;;;;;;2.53;2.05;;;;;;;;;;10308454;28;20062;-78
2023/06/28 11:41:35;;;;;;;4.07;2.08;;;;;;;;;;10310506;28;20042;-78
2023/06/28 11:46:36;;;;;;;2.10;1.63;;;;;;;;;;10307086;28;20077;-79
2023/06/28 11:51:37;;;;;;;3.75;2.05;;;;;;;;;;10310758;28;20046;-78
2023/06/28 11:56:38;;;;;;;3.47;2.13;;;;;;;;;;10305527;28;20467;-78
2023/06/28 12:01:39;;;;;;;2.53;2.00;;;;;;;;;;10301045;28;20061;-77
2023/06/28 12:06:41;;;;;;;2.97;2.13;;;;;;;;;;10306425;28;20420;-77
2023/06/28 12:11:48;;;;;;;3.70;2.03;;;;;;;;;;10307912;28;20039;-78
2023/06/28 12:16:52;;;;;;;3.90;1.90;;;;;;;;;;10306796;28;20062;-77
2023/06/28 12:21:54;;;;;;;2.90;1.90;;;;;;;;;;10310658;28;20049;-78
2023/06/28 12:26:56;;;;;;;4.28;2.17;;;;;;;;;;10306762;28;20042;-78
2023/06/28 12:31:57;;;;;;;3.22;1.90;;;;;;;;;;10314317;28;20795;-77
2023/06/28 12:37:00;;;;;;;3.13;2.20;;;;;;;;;;10321997;28;20054;-79
2023/06/28 12:42:04;;;;;;;2.33;1.98;;;;;;;;;;10325916;28;20038;-78
2023/06/28 12:47:05;;;;;;;2.97;1.90;;;;;;;;;;10309356;28;20054;-79
2023/06/28 12:52:05;;;;;;;2.83;1.88;;;;;;;;;;10313485;28;20043;-77
2023/06/28 12:57:06;;;;;;;4.32;1.90;;;;;;;;;;10306595;28;20089;-79
2023/06/28 13:02:07;;;;;;;2.75;1.52;;;;;;;;;;10303276;28;20089;-78
2023/06/28 13:07:07;;;;;;;3.97;2.00;;;;;;;;;;10307282;28;20481;-78
2023/06/28 13:12:08;;;;;;;2.20;1.88;;;;;;;;;;10303170;28;20304;-78
2023/06/28 13:17:08;;;;;;;3.78;2.20;;;;;;;;;;10311073;28;20168;-78
2023/06/28 13:22:09;;;;;;;3.70;2.15;;;;;;;;;;10314126;28;20049;-77
2023/06/28 13:27:09;;;;;;;3.00;1.88;;;;;;;;;;10315511;28;20050;-76
2023/06/28 13:32:09;;;;;;;2.80;1.67;;;;;;;;;;10313993;28;20101;-78
2023/06/28 13:37:10;;;;;;;4.10;1.77;;;;;;;;;;10313772;28;20068;-77
2023/06/28 13:42:10;;;;;;;2.60;1.70;;;;;;;;;;10314365;28;20038;-80
2023/06/28 13:47:10;;;;;;;3.77;1.80;;;;;;;;;;10307234;28;20132;-81
2023/06/28 13:52:11;;;;;;;3.13;1.73;;;;;;;;;;10313082;28;20053;-79
2023/06/28 13:57:11;;;;;;;1.48;1.38;;;;;;;;;;10304226;28;20050;-79
2023/06/28 14:02:12;;;;;;;2.10;1.60;;;;;;;;;;10315105;28;20483;-78
2023/06/28 14:07:13;;;;;;;3.90;2.07;;;;;;;;;;10324573;28;20074;-80
2023/06/28 14:12:14;;;;;;;2.88;1.90;;;;;;;;;;10319566;28;20655;-83
2023/06/28 14:17:14;;;;;;;2.30;2.10;;;;;;;;;;10331224;28;20119;-82
2023/06/28 14:22:14;;;;;;;3.70;2.10;;;;;;;;;;10347426;28;20121;-86
2023/06/28 14:27:16;;;;;;;3.42;1.73;;;;;;;;;;10321900;28;20746;-82
2023/06/28 14:32:18;;;;;;;2.97;2.20;;;;;;;;;;10300613;28;20046;-82
2023/06/28 14:37:18;;;;;;;3.00;1.80;;;;;;;;;;10305956;28;20084;-85
2023/06/28 14:42:19;;;;;;;2.30;1.70;;;;;;;;;;10329441;28;20161;-85
2023/06/28 14:47:19;;;;;;;2.30;2.10;;;;;;;;;;10336901;28;20039;-86
2023/06/28 14:52:19;;;;;;;1.80;1.50;;;;;;;;;;10326618;28;20048;-85
2023/06/28 14:57:23;;;;;;;2.33;1.90;;;;;;;;;;10328102;23;20315;-85
2023/06/28 15:02:40;;;;;;;3.38;2.25;;;;;;;;;;10355077;28;20104;-87
2023/06/28 15:07:41;;;;;;;4.57;3.60;;;;;;;;;;10317199;28;20049;-82
2023/06/28 15:12:41;;;;;;;2.10;1.73;;;;;;;;;;10351663;28;20057;-92
2023/06/28 15:17:49;;;;;;;2.83;2.00;;;;;;;;;;10374329;28;20228;-83
2023/06/28 15:22:52;;;;;;;2.00;1.70;;;;;;;;;;10331719;28;20081;-80
2023/06/28 15:27:54;;;;;;;1.88;1.70;;;;;;;;;;10343400;28;20769;-87
2023/06/28 15:32:54;;;;;;;2.38;1.90;;;;;;;;;;10347158;28;20042;-85
2023/06/28 15:37:56;;;;;;;2.27;1.80;;;;;;;;;;10353635;28;20057;-82
2023/06/28 15:42:57;;;;;;;3.55;1.95;;;;;;;;;;10361697;28;20022;-84
2023/06/28 15:47:57;;;;;;;3.20;2.20;;;;;;;;;;10396340;28;20068;-80
2023/06/28 15:52:57;;;;;;;3.37;2.10;;;;;;;;;;10352895;28;20037;-77
2023/06/28 15:57:58;;;;;;;4.23;1.80;;;;;;;;;;10344913;28;20129;-78
2023/06/28 16:02:58;;;;;;;4.70;1.90;;;;;;;;;;10340648;28;20146;-76
2023/06/28 16:07:59;;;;;;;2.97;2.20;;;;;;;;;;10312100;28;20140;-76
2023/06/28 16:13:02;;;;;;;3.57;1.83;;;;;;;;;;10345699;28;20038;-77
2023/06/28 16:18:03;;;;;;;2.10;1.90;;;;;;;;;;10318132;28;20062;-76
2023/06/28 16:23:03;;;;;;;1.97;1.83;;;;;;;;;;10347599;28;20751;-77
2023/06/28 16:28:03;;;;;;;2.17;1.63;;;;;;;;;;10348988;28;20790;-77
2023/06/28 16:33:07;;;;;;;3.33;1.73;;;;;;;;;;10347431;28;20041;-77
2023/06/28 16:38:07;;;;;;;2.10;1.60;;;;;;;;;;10344585;28;20058;-78
2023/06/28 16:43:08;;;;;;;2.55;1.92;;;;;;;;;;10351581;28;20831;-77
2023/06/28 16:48:08;;;;;;;3.78;1.90;;;;;;;;;;10351987;28;20094;-78
2023/06/28 16:53:09;;;;;;;4.13;1.90;;;;;;;;;;10343166;28;20042;-76
2023/06/28 16:58:09;;;;;;;2.27;2.07;;;;;;;;;;10353295;28;20137;-76
2023/06/28 17:03:09;;;;;;;1.87;1.53;;;;;;;;;;10349908;28;20704;-80
2023/06/28 17:08:11;;;;;;;4.00;2.05;;;;;;;;;;10352736;28;20042;-80
2023/06/28 17:13:12;;;;;;;2.50;1.80;;;;;;;;;;10352954;28;20064;-80
2023/06/28 17:18:12;;;;;;;2.03;1.60;;;;;;;;;;10351558;28;20050;-79
2023/06/28 17:23:16;;;;;;;1.90;1.65;;;;;;;;;;10349975;28;20046;-80
2023/06/28 17:28:20;;;;;;;2.58;1.67;;;;;;;;;;10351094;28;20405;-79
2023/06/28 17:33:22;;;;;;;2.40;1.73;;;;;;;;;;10352869;28;20939;-78
2023/06/28 17:38:22;;;;;;;3.22;2.22;;;;;;;;;;10335828;28;20080;-79
2023/06/28 17:43:23;;;;;;;2.23;1.80;;;;;;;;;;10346993;28;20056;-80
2023/06/28 17:48:23;;;;;;;2.10;1.70;;;;;;;;;;10349033;28;20399;-78
2023/06/28 17:53:23;;;;;;;1.70;1.60;;;;;;;;;;10351675;28;20301;-81
2023/06/28 17:58:24;;;;;;;4.07;2.00;;;;;;;;;;10349459;28;20057;-79
2023/06/28 18:03:25;;;;;;;2.50;2.00;;;;;;;;;;10353884;28;20159;-83
2023/06/28 18:08:27;;;;;;;2.57;1.80;;;;;;;;;;10335898;28;20049;-80
2023/06/28 18:13:28;;;;;;;3.05;1.88;;;;;;;;;;10352801;28;20288;-79
2023/06/28 18:18:28;;;;;;;2.30;2.10;;;;;;;;;;10337796;28;20135;-81
2023/06/28 18:23:29;;;;;;;3.58;2.42;;;;;;;;;;10338454;28;20052;-80
2023/06/28 18:28:29;;;;;;;2.20;2.00;;;;;;;;;;10349530;28;20056;-77
2023/06/28 18:33:30;;;;;;;3.03;1.97;;;;;;;;;;10349168;28;20115;-79
2023/06/28 18:38:30;;;;;;;4.60;3.00;;;;;;;;;;10350999;28;20085;-80
2023/06/28 18:43:31;;;;;;;3.47;1.73;;;;;;;;;;10345138;28;20665;-78
2023/06/28 18:48:33;;;;;;;5.13;2.40;;;;;;;;;;10362610;28;20289;-84
2023/06/28 18:53:34;;;;;;;3.63;2.22;;;;;;;;;;10353152;28;20041;-79
2023/06/28 18:58:36;;;;;;;3.50;2.50;;;;;;;;;;10359771;28;20058;-77
2023/06/28 19:03:37;;;;;;;3.60;2.17;;;;;;;;;;10358002;28;20293;-80
2023/06/28 19:08:37;;;;;;;4.47;3.67;;;;;;;;;;10348814;28;20048;-78
2023/06/28 19:13:39;;;;;;;4.10;3.17;;;;;;;;;;10342943;28;20044;-82
2023/06/28 19:18:40;;;;;;;3.58;2.90;;;;;;;;;;10348147;28;20076;-81
2023/06/28 19:23:41;;;;;;;5.17;3.00;;;;;;;;;;10347004;28;20057;-82
2023/06/28 19:28:41;;;;;;;3.80;2.53;;;;;;;;;;10334132;28;20046;-77
2023/06/28 19:33:41;;;;;;;3.13;2.70;;;;;;;;;;10353361;28;21195;-80
2023/06/28 19:38:42;;;;;;;5.13;3.00;;;;;;;;;;10348062;28;20400;-78
2023/06/28 19:43:42;;;;;;;3.95;2.83;;;;;;;;;;10351185;28;20648;-80
2023/06/28 19:48:43;;;;;;;4.65;2.35;;;;;;;;;;10360914;28;20045;-82
2023/06/28 19:53:44;;;;;;;5.47;2.60;;;;;;;;;;10379366;28;20057;-82
2023/06/28 19:58:44;;;;;;;2.90;2.70;;;;;;;;;;10356130;28;20395;-81
2023/06/28 20:03:44;;;;;;;3.53;3.10;;;;;;;;;;10345939;28;20048;-80
2023/06/28 20:08:45;;;;;;;3.87;3.57;;;;;;;;;;10344129;28;20137;-78
2023/06/28 20:13:45;;;;;;;4.93;3.97;;;;;;;;;;10341622;28;20069;-80
2023/06/28 20:18:45;;;;;;;6.23;4.00;;;;;;;;;;10347784;28;20414;-78
2023/06/28 20:23:47;;;;;;;7.03;4.10;;;;;;;;;;10324164;28;20323;-78
2023/06/28 20:28:49;;;;;;;6.15;4.50;;;;;;;;;;10347159;28;20076;-75
2023/06/28 20:33:49;;;;;;;7.93;4.70;;;;;;;;;;10327581;28;20037;-74
2023/06/28 20:38:51;;;;;;;6.97;5.03;;;;;;;;;;10342950;28;20512;-74
2023/06/28 20:43:53;;;;;;;5.63;4.50;;;;;;;;;;10342532;28;20284;-74
2023/06/28 20:48:53;;;;;;;7.27;4.50;;;;;;;;;;10338111;28;20386;-75
2023/06/28 20:53:54;;;;;;;5.68;4.00;;;;;;;;;;10341945;28;20042;-74
2023/06/28 20:58:54;;;;;;;5.50;4.30;;;;;;;;;;10343332;28;20053;-75
2023/06/28 21:03:55;;;;;;;9.15;6.55;;;;;;;;;;10340616;28;20046;-74
2023/06/28 21:08:55;;;;;;;5.72;4.53;;;;;;;;;;10340877;28;20049;-74
2023/06/28 21:13:56;;;;;;;5.60;4.53;;;;;;;;;;10340751;28;20073;-75
2023/06/28 21:18:56;;;;;;;5.33;4.57;;;;;;;;;;10341542;28;20311;-75
2023/06/28 21:23:57;;;;;;;6.18;4.50;;;;;;;;;;10339108;28;20356;-74
2023/06/28 21:28:58;;;;;;;5.13;4.57;;;;;;;;;;10321045;28;20054;-76
2023/06/28 21:33:59;;;;;;;5.80;5.20;;;;;;;;;;10338052;28;20078;-75
2023/06/28 21:38:59;;;;;;;4.50;3.90;;;;;;;;;;10342808;28;20467;-74
2023/06/28 21:43:59;;;;;;;5.37;4.83;;;;;;;;;;10334076;28;20080;-75
2023/06/28 21:48:59;;;;;;;4.90;4.40;;;;;;;;;;10345470;28;20894;-76
2023/06/28 21:54:00;;;;;;;5.67;4.97;;;;;;;;;;10345631;28;20072;-73
2023/06/28 21:59:01;;;;;;;7.47;5.63;;;;;;;;;;10345574;28;20316;-72
2023/06/28 22:04:01;;;;;;;6.68;5.60;;;;;;;;;;10345711;28;20234;-75
2023/06/28 22:09:01;;;;;;;6.23;5.00;;;;;;;;;;10346063;28;20120;-74
2023/06/28 22:14:06;;;;;;;5.27;4.77;;;;;;;;;;10345284;28;20053;-73
2023/06/28 22:19:09;;;;;;;5.00;4.50;;;;;;;;;;10346273;28;20308;-74
2023/06/28 22:24:10;;;;;;;5.07;3.92;;;;;;;;;;10342442;28;20102;-74
2023/06/28 22:29:11;;;;;;;4.50;4.10;;;;;;;;;;10345078;28;20486;-74
2023/06/28 22:34:12;;;;;;;4.25;3.67;;;;;;;;;;10348633;28;20041;-75
2023/06/28 22:39:12;;;;;;;4.57;3.80;;;;;;;;;;10345680;28;20086;-74
2023/06/28 22:44:12;;;;;;;3.80;3.50;;;;;;;;;;10343955;28;20042;-73
2023/06/28 22:49:13;;;;;;;4.10;3.77;;;;;;;;;;10343397;28;20156;-74
2023/06/28 22:54:14;;;;;;;4.90;4.40;;;;;;;;;;10327871;28;20093;-74
2023/06/28 22:59:14;;;;;;;4.93;3.97;;;;;;;;;;10317388;28;20053;-74
2023/06/28 23:04:14;;;;;;;4.77;4.17;;;;;;;;;;10345721;28;20048;-73
2023/06/28 23:09:15;;;;;;;4.93;4.03;;;;;;;;;;10341898;28;20100;-73
2023/06/28 23:14:15;;;;;;;7.60;3.90;;;;;;;;;;10340794;28;20388;-73
2023/06/28 23:19:16;;;;;;;4.30;3.90;;;;;;;;;;10347298;28;20054;-73
2023/06/28 23:24:18;;;;;;;4.20;3.90;;;;;;;;;;10342092;28;20284;-73
2023/06/28 23:29:19;;;;;;;4.43;4.03;;;;;;;;;;10341737;28;20053;-74
2023/06/28 23:34:19;;;;;;;5.43;3.97;;;;;;;;;;10328730;28;20053;-75
2023/06/28 23:39:19;;;;;;;3.97;3.60;;;;;;;;;;10347789;28;20728;-74
2023/06/28 23:44:20;;;;;;;4.10;3.75;;;;;;;;;;10341087;28;20070;-75
2023/06/28 23:49:22;;;;;;;4.43;4.03;;;;;;;;;;10346878;28;20038;-75
2023/06/28 23:54:23;;;;;;;4.57;3.60;;;;;;;;;;10325998;28;20067;-74
2023/06/28 23:59:23;;;;;;;3.63;3.33;;;;;;;;;;10340526;28;20065;-74
